createdAt,value
2022-10-19T00:01:16.685Z,100349.84
2022-10-19T00:03:45.329Z,100346.63
2022-10-19T00:06:30.515Z,100342.94
2022-10-19T00:09:02.304Z,100345.50
2022-10-19T00:11:30.629Z,100350.69
2022-10-19T00:13:58.678Z,100349.44
2022-10-19T00:16:28.503Z,100349.22
2022-10-19T00:19:02.868Z,100343.53
2022-10-19T00:21:30.839Z,100347.00
2022-10-19T00:23:59.880Z,100334.81
2022-10-19T00:26:26.942Z,100335.75
2022-10-19T00:28:55.559Z,100337.16
2022-10-19T00:31:24.782Z,100338.53
2022-10-19T00:33:52.713Z,100342.28
2022-10-19T00:36:27.025Z,100348.97
2022-10-19T00:38:55.781Z,100349.06
2022-10-19T00:41:26.411Z,100349.09
2022-10-19T00:43:59.353Z,100344.53
2022-10-19T00:46:30.116Z,100349.59
2022-10-19T00:49:07.105Z,100348.38
2022-10-19T00:51:40.690Z,100353.41
2022-10-19T00:54:09.098Z,100356.88
2022-10-19T00:56:39.957Z,100348.28
2022-10-19T00:59:09.163Z,100350.97
2022-10-19T01:01:37.016Z,100354.28
2022-10-19T01:04:05.005Z,100357.75
2022-10-19T01:06:34.358Z,100349.91
2022-10-19T01:09:03.454Z,100344.72
2022-10-19T01:11:48.966Z,100348.53
2022-10-19T01:14:21.894Z,100343.22
2022-10-19T01:17:07.628Z,100341.56
2022-10-19T01:20:12.011Z,100340.16
2022-10-19T01:23:17.370Z,100339.41
2022-10-19T01:26:12.847Z,100342.44
2022-10-19T01:29:18.157Z,100331.56
2022-10-19T01:31:54.668Z,100338.75
2022-10-19T01:34:32.998Z,100331.44
2022-10-19T01:37:23.752Z,100339.59
2022-10-19T01:40:22.882Z,100331.88
2022-10-19T01:43:00.358Z,100324.19
2022-10-19T01:45:42.960Z,100335.78
2022-10-19T01:48:19.450Z,100335.78
2022-10-19T01:50:53.738Z,100324.19
2022-10-19T01:53:23.493Z,100333.00
2022-10-19T01:55:52.518Z,100325.06
2022-10-19T01:58:26.950Z,100319.09
2022-10-19T02:00:57.550Z,100329.09
2022-10-19T02:03:26.195Z,100334.66
2022-10-19T02:05:55.148Z,100337.00
2022-10-19T02:08:31.686Z,100335.28
2022-10-19T02:11:01.270Z,100332.75
2022-10-19T02:13:30.963Z,100337.81
2022-10-19T02:16:02.343Z,100335.28
2022-10-19T02:18:36.723Z,100345.66
2022-10-19T02:21:08.014Z,100338.81
2022-10-19T02:23:36.125Z,100349.72
2022-10-19T02:26:04.714Z,100334.00
2022-10-19T02:28:33.315Z,100338.66
2022-10-19T02:31:01.622Z,100337.25
2022-10-19T02:33:30.009Z,100332.22
2022-10-19T02:35:58.031Z,100333.50
2022-10-19T02:38:26.587Z,100335.56
2022-10-19T02:41:43.043Z,100330.56
2022-10-19T02:44:48.237Z,100324.94
2022-10-19T02:47:36.586Z,100337.28
2022-10-19T02:50:11.062Z,100321.63
2022-10-19T02:52:39.498Z,100319.16
2022-10-19T02:55:08.095Z,100324.63
2022-10-19T02:57:35.306Z,100326.53
2022-10-19T03:00:04.170Z,100336.28
2022-10-19T03:02:31.145Z,100332.06
2022-10-19T03:04:58.150Z,100330.47
2022-10-19T03:07:25.106Z,100330.91
2022-10-19T03:09:52.199Z,100323.91
2022-10-19T03:12:20.255Z,100325.22
2022-10-19T03:14:48.356Z,100332.38
2022-10-19T03:17:15.380Z,100324.94
2022-10-19T03:19:42.397Z,100321.44
2022-10-19T03:22:09.386Z,100316.94
2022-10-19T03:24:36.332Z,100327.13
2022-10-19T03:27:03.380Z,100329.31
2022-10-19T03:29:30.341Z,100330.47
2022-10-19T03:31:58.288Z,100332.50
2022-10-19T03:34:25.310Z,100332.19
2022-10-19T03:36:52.335Z,100322.56
2022-10-19T03:39:20.272Z,100332.72
2022-10-19T03:41:47.233Z,100327.63
2022-10-19T03:44:14.202Z,100321.47
2022-10-19T03:46:42.256Z,100313.13
2022-10-19T03:49:12.298Z,100312.81
2022-10-19T03:51:39.298Z,100308.53
2022-10-19T03:54:08.464Z,100309.13
2022-10-19T03:56:36.410Z,100319.94
2022-10-19T03:59:05.503Z,100315.75
2022-10-19T04:01:41.716Z,100316.91
2022-10-19T04:04:12.764Z,100310.69
2022-10-19T04:06:41.952Z,100314.97
2022-10-19T04:09:13.503Z,100312.44
2022-10-19T04:11:41.316Z,100318.59
2022-10-19T04:14:18.966Z,100314.88
2022-10-19T04:16:54.271Z,100310.63
2022-10-19T04:19:22.796Z,100314.25
2022-10-19T04:21:50.161Z,100305.63
2022-10-19T04:24:19.075Z,100310.91
2022-10-19T04:26:48.942Z,100306.63
2022-10-19T04:29:17.660Z,100301.97
2022-10-19T04:31:45.272Z,100309.13
2022-10-19T04:34:12.628Z,100303.69
2022-10-19T04:36:39.656Z,100300.13
2022-10-19T04:39:08.265Z,100308.81
2022-10-19T04:41:35.803Z,100297.34
2022-10-19T04:44:06.772Z,100304.91
2022-10-19T04:46:34.161Z,100299.13
2022-10-19T04:49:01.300Z,100305.84
2022-10-19T04:51:28.436Z,100303.72
2022-10-19T04:53:59.666Z,100296.22
2022-10-19T04:56:28.371Z,100298.03
2022-10-19T04:58:59.479Z,100299.38
2022-10-19T05:01:29.831Z,100307.31
2022-10-19T05:04:00.686Z,100305.19
2022-10-19T05:06:29.149Z,100292.09
2022-10-19T05:08:56.873Z,100286.84
2022-10-19T05:11:24.338Z,100294.13
2022-10-19T05:13:52.209Z,100286.31
2022-10-19T05:16:22.315Z,100301.06
2022-10-19T05:18:59.101Z,100307.44
2022-10-19T05:21:29.103Z,100310.19
2022-10-19T05:23:57.329Z,100314.53
2022-10-19T05:26:26.438Z,100307.31
2022-10-19T05:28:57.094Z,100305.59
2022-10-19T05:31:28.841Z,100312.00
2022-10-19T05:33:56.572Z,100311.13
2022-10-19T05:36:29.944Z,100307.34
2022-10-19T05:38:57.918Z,100310.00
2022-10-19T05:41:26.633Z,100312.97
2022-10-19T05:44:01.714Z,100310.59
2022-10-19T05:46:30.149Z,100320.78
2022-10-19T05:48:58.635Z,100319.91
2022-10-19T05:51:27.042Z,100320.69
2022-10-19T05:53:55.428Z,100325.94
2022-10-19T05:56:24.994Z,100335.53
2022-10-19T05:58:52.971Z,100327.66
2022-10-19T06:01:20.461Z,100333.81
2022-10-19T06:03:51.210Z,100338.25
2022-10-19T06:06:18.557Z,100336.91
2022-10-19T06:08:45.623Z,100353.63
2022-10-19T06:11:20.322Z,100351.94
2022-10-19T06:13:49.757Z,100358.09
2022-10-19T06:16:18.873Z,100363.50
2022-10-19T06:18:46.159Z,100367.59
2022-10-19T06:21:16.120Z,100368.50
2022-10-19T06:26:15.195Z,100361.59
2022-10-19T06:28:43.888Z,100367.75
2022-10-19T06:31:11.440Z,100374.84
2022-10-19T06:33:40.852Z,100371.19
2022-10-19T06:36:14.036Z,100369.28
2022-10-19T06:38:42.207Z,100364.84
2022-10-19T06:41:10.093Z,100370.03
2022-10-19T06:43:37.589Z,100365.63
2022-10-19T06:46:07.151Z,100374.19
2022-10-19T06:48:34.974Z,100378.88
2022-10-19T06:51:06.320Z,100374.69
2022-10-19T06:53:34.955Z,100376.56
2022-10-19T06:56:04.388Z,100392.25
2022-10-19T06:58:31.535Z,100387.84
2022-10-19T07:01:00.213Z,100387.22
2022-10-19T07:03:29.017Z,100391.59
2022-10-19T07:05:57.897Z,100393.97
2022-10-19T07:08:25.957Z,100397.00
2022-10-19T07:10:55.219Z,100399.19
2022-10-19T07:13:22.847Z,100408.00
2022-10-19T07:15:50.254Z,100408.66
2022-10-19T07:18:17.202Z,100393.03
2022-10-19T07:20:53.552Z,100399.34
2022-10-19T07:23:20.522Z,100403.53
2022-10-19T07:25:47.444Z,100400.75
2022-10-19T07:28:14.384Z,100407.91
2022-10-19T07:30:41.369Z,100397.00
2022-10-19T07:33:08.436Z,100400.47
2022-10-19T07:35:37.188Z,100403.22
2022-10-19T07:38:04.102Z,100407.53
2022-10-19T07:40:30.989Z,100424.22
2022-10-19T07:42:57.938Z,100412.03
2022-10-19T07:45:24.975Z,100416.72
2022-10-19T07:47:52.003Z,100421.84
2022-10-19T07:50:19.157Z,100427.09
2022-10-19T07:52:46.113Z,100421.09
2022-10-19T07:55:13.016Z,100426.16
2022-10-19T07:57:41.581Z,100426.56
2022-10-19T08:00:11.637Z,100429.00
2022-10-19T08:02:54.752Z,100427.00
2022-10-19T08:05:25.610Z,100437.88
2022-10-19T08:07:52.706Z,100434.31
2022-10-19T08:10:19.717Z,100426.94
2022-10-19T08:12:46.747Z,100428.19
2022-10-19T08:15:13.753Z,100415.72
2022-10-19T08:17:40.786Z,100427.03
2022-10-19T08:20:08.369Z,100426.91
2022-10-19T08:22:35.418Z,100426.69
2022-10-19T08:25:03.991Z,100412.41
2022-10-19T08:27:30.997Z,100428.03
2022-10-19T08:29:58.009Z,100416.56
2022-10-19T08:32:25.001Z,100406.72
2022-10-19T08:34:51.907Z,100413.94
2022-10-19T08:37:26.312Z,100410.03
2022-10-19T08:39:59.910Z,100412.84
2022-10-19T08:42:48.117Z,100414.16
2022-10-19T08:45:31.895Z,100399.69
2022-10-19T08:48:30.350Z,100414.78
2022-10-19T08:50:59.473Z,100413.38
2022-10-19T08:53:38.493Z,100415.53
2022-10-19T08:56:45.658Z,100410.06
2022-10-19T08:59:16.303Z,100413.16
2022-10-19T09:02:14.386Z,100400.50
2022-10-19T09:04:47.259Z,100407.31
2022-10-19T09:07:31.353Z,100404.84
2022-10-19T09:10:04.435Z,100405.59
2022-10-19T09:12:40.499Z,100417.03
2022-10-19T09:15:18.191Z,100409.06
2022-10-19T09:17:45.354Z,100419.22
2022-10-19T09:20:23.049Z,100416.44
2022-10-19T09:23:22.255Z,100419.34
2022-10-19T09:25:51.777Z,100410.19
2022-10-19T09:28:45.337Z,100410.34
2022-10-19T09:31:44.821Z,100415.91
2022-10-19T09:34:27.165Z,100416.31
2022-10-19T09:36:57.638Z,100413.69
2022-10-19T09:39:29.486Z,100426.63
2022-10-19T09:42:01.246Z,100407.69
2022-10-19T09:44:28.284Z,100411.22
2022-10-19T09:47:19.979Z,100416.09
2022-10-19T09:49:49.359Z,100415.19
2022-10-19T09:52:37.247Z,100420.28
2022-10-19T09:55:17.008Z,100420.94
2022-10-19T09:57:45.674Z,100419.22
2022-10-19T10:00:25.577Z,100410.47
2022-10-19T10:02:54.675Z,100425.41
2022-10-19T10:05:40.194Z,100423.13
2022-10-19T10:08:17.135Z,100435.13
2022-10-19T10:10:47.869Z,100433.41
2022-10-19T10:13:21.263Z,100423.72
2022-10-19T10:16:00.606Z,100437.84
2022-10-19T10:18:30.025Z,100433.94
2022-10-19T10:20:59.136Z,100432.25
2022-10-19T10:23:31.297Z,100435.88
2022-10-19T10:26:00.362Z,100417.28
2022-10-19T10:28:29.924Z,100425.03
2022-10-19T10:31:03.931Z,100424.97
2022-10-19T10:36:28.078Z,100433.88
2022-10-19T10:39:16.434Z,100417.97
2022-10-19T10:41:46.549Z,100416.56
2022-10-19T10:44:26.757Z,100434.19
2022-10-19T10:47:01.504Z,100418.69
2022-10-19T10:49:37.878Z,100426.50
2022-10-19T10:52:12.316Z,100416.06
2022-10-19T10:54:39.511Z,100413.84
2022-10-19T10:57:10.212Z,100402.97
2022-10-19T10:59:45.870Z,100405.31
2022-10-19T11:02:34.294Z,100419.94
2022-10-19T11:05:12.343Z,100416.72
2022-10-19T11:07:45.182Z,100410.31
2022-10-19T11:10:16.717Z,100418.34
2022-10-19T11:12:58.037Z,100407.31
2022-10-19T11:15:48.109Z,100422.78
2022-10-19T11:18:25.458Z,100413.25
2022-10-19T11:21:13.357Z,100404.75
2022-10-19T11:24:02.855Z,100413.22
2022-10-19T11:26:48.670Z,100412.88
2022-10-19T11:29:46.432Z,100410.88
2022-10-19T11:32:35.883Z,100413.09
2022-10-19T11:35:28.824Z,100415.69
2022-10-19T11:38:30.191Z,100414.97
2022-10-19T11:41:22.212Z,100412.53
2022-10-19T11:44:18.028Z,100410.16
2022-10-19T11:46:57.681Z,100407.78
2022-10-19T11:49:48.346Z,100411.75
2022-10-19T11:52:46.796Z,100420.03
2022-10-19T11:55:46.247Z,100415.25
2022-10-19T11:58:42.726Z,100403.31
2022-10-19T12:01:34.582Z,100398.59
2022-10-19T12:04:04.690Z,100403.81
2022-10-19T12:06:49.593Z,100413.25
2022-10-19T12:09:57.904Z,100403.84
2022-10-19T12:12:37.913Z,100405.03
2022-10-19T12:15:23.938Z,100408.03
2022-10-19T12:17:54.275Z,100419.59
2022-10-19T12:20:42.317Z,100423.59
2022-10-19T12:23:26.774Z,100403.81
2022-10-19T12:25:56.579Z,100404.81
2022-10-19T12:28:36.243Z,100417.91
2022-10-19T12:31:06.369Z,100394.03
2022-10-19T12:33:47.490Z,100414.56
2022-10-19T12:36:14.557Z,100400.88
2022-10-19T12:39:09.327Z,100406.81
2022-10-19T12:41:55.087Z,100403.81
2022-10-19T12:44:43.116Z,100409.13
2022-10-19T12:47:19.681Z,100411.94
2022-10-19T12:49:49.668Z,100409.44
2022-10-19T12:52:41.753Z,100393.88
2022-10-19T12:55:31.793Z,100402.09
2022-10-19T12:58:21.189Z,100400.25
2022-10-19T13:01:13.533Z,100402.56
2022-10-19T13:03:44.717Z,100413.19
2022-10-19T13:06:16.044Z,100412.31
2022-10-19T13:08:48.924Z,100411.88
2022-10-19T13:11:16.085Z,100401.25
2022-10-19T13:14:20.259Z,100404.44
2022-10-19T13:17:01.498Z,100410.50
2022-10-19T13:19:28.850Z,100392.44
2022-10-19T13:22:01.897Z,100406.56
2022-10-19T13:24:33.411Z,100410.06
2022-10-19T13:27:03.261Z,100420.78
2022-10-19T13:29:39.725Z,100411.97
2022-10-19T13:32:45.050Z,100406.44
2022-10-19T13:35:33.670Z,100412.31
2022-10-19T13:38:09.765Z,100423.47
2022-10-19T13:40:39.128Z,100413.06
2022-10-19T13:43:06.099Z,100418.97
2022-10-19T13:45:33.117Z,100419.78
2022-10-19T13:48:15.737Z,100413.56
2022-10-19T13:51:15.400Z,100424.00
2022-10-19T13:54:03.434Z,100425.56
2022-10-19T13:57:15.246Z,100416.66
2022-10-19T14:00:10.394Z,100423.47
2022-10-19T14:02:55.675Z,100429.88
2022-10-19T14:05:40.938Z,100423.13
2022-10-19T14:08:30.246Z,100429.69
2022-10-19T14:11:04.473Z,100438.13
2022-10-19T14:13:31.750Z,100432.88
2022-10-19T14:16:01.759Z,100427.03
2022-10-19T14:18:33.089Z,100431.63
2022-10-19T14:21:09.402Z,100425.22
2022-10-19T14:23:40.634Z,100418.88
2022-10-19T14:26:15.085Z,100431.44
2022-10-19T14:28:43.332Z,100411.13
2022-10-19T14:31:18.524Z,100411.47
2022-10-19T14:33:53.747Z,100410.53
2022-10-19T14:36:24.026Z,100405.94
2022-10-19T14:38:55.424Z,100405.22
2022-10-19T14:44:03.067Z,100421.50
2022-10-19T14:46:32.545Z,100407.22
2022-10-19T14:49:02.522Z,100405.19
2022-10-19T14:51:49.523Z,100421.16
2022-10-19T14:54:23.969Z,100412.78
2022-10-19T14:56:57.923Z,100417.91
2022-10-19T14:59:32.516Z,100408.47
2022-10-19T15:02:02.547Z,100418.16
2022-10-19T15:04:33.989Z,100419.28
2022-10-19T15:07:05.019Z,100413.16
2022-10-19T15:09:47.784Z,100417.94
2022-10-19T15:12:19.395Z,100409.34
2022-10-19T15:14:48.181Z,100412.22
2022-10-19T15:17:26.479Z,100418.53
2022-10-19T15:19:55.912Z,100422.44
2022-10-19T15:22:38.396Z,100407.59
2022-10-19T15:25:08.508Z,100416.28
2022-10-19T15:27:38.125Z,100424.34
2022-10-19T15:30:28.664Z,100427.31
2022-10-19T15:33:13.517Z,100420.31
2022-10-19T15:35:44.329Z,100421.41
2022-10-19T15:38:14.986Z,100422.38
2022-10-19T15:40:45.847Z,100414.31
2022-10-19T15:43:31.333Z,100415.22
2022-10-19T15:46:01.374Z,100421.75
2022-10-19T15:48:45.057Z,100425.34
2022-10-19T15:51:27.214Z,100413.34
2022-10-19T15:54:04.541Z,100425.56
2022-10-19T15:56:34.914Z,100429.03
2022-10-19T15:59:05.945Z,100414.22
2022-10-19T16:01:34.138Z,100424.03
2022-10-19T16:04:02.513Z,100424.97
2022-10-19T16:06:33.303Z,100428.41
2022-10-19T16:09:01.188Z,100427.47
2022-10-19T16:11:30.544Z,100431.13
2022-10-19T16:13:58.926Z,100444.22
2022-10-19T16:16:30.264Z,100445.31
2022-10-19T16:18:59.062Z,100434.81
2022-10-19T16:21:32.540Z,100444.53
2022-10-19T16:24:00.806Z,100451.69
2022-10-19T16:26:29.140Z,100451.00
2022-10-19T16:28:56.705Z,100453.97
2022-10-19T16:31:25.257Z,100451.53
2022-10-19T16:33:52.444Z,100461.69
2022-10-19T16:36:20.842Z,100475.56
2022-10-19T16:38:49.227Z,100468.56
2022-10-19T16:41:17.382Z,100459.22
2022-10-19T16:43:44.546Z,100463.50
2022-10-19T16:46:11.852Z,100465.38
2022-10-19T16:48:39.829Z,100467.06
2022-10-19T16:51:13.089Z,100469.00
2022-10-19T16:53:40.476Z,100472.16
2022-10-19T16:56:11.767Z,100479.16
2022-10-19T16:58:41.735Z,100488.81
2022-10-19T17:01:16.097Z,100479.31
2022-10-19T17:03:46.289Z,100487.97
2022-10-19T17:06:14.348Z,100491.47
2022-10-19T17:11:33.739Z,100508.22
2022-10-19T17:14:04.051Z,100517.84
2022-10-19T17:16:36.308Z,100510.88
2022-10-19T17:19:07.303Z,100514.28
2022-10-19T17:21:39.330Z,100503.47
2022-10-19T17:24:08.669Z,100513.94
2022-10-19T17:26:43.513Z,100522.94
2022-10-19T17:29:11.154Z,100515.00
2022-10-19T17:31:40.543Z,100538.72
2022-10-19T17:34:09.481Z,100537.00
2022-10-19T17:39:18.587Z,100543.94
2022-10-19T17:41:48.174Z,100543.25
2022-10-19T17:44:18.818Z,100547.22
2022-10-19T17:46:48.674Z,100544.75
2022-10-19T17:49:17.105Z,100548.47
2022-10-19T17:51:44.491Z,100553.22
2022-10-19T17:54:17.049Z,100553.47
2022-10-19T17:56:47.247Z,100551.03
2022-10-19T17:59:14.776Z,100558.13
2022-10-19T18:01:42.466Z,100553.03
2022-10-19T18:04:10.114Z,100556.53
2022-10-19T18:06:39.109Z,100557.41
2022-10-19T18:09:09.682Z,100553.09
2022-10-19T18:11:45.913Z,100552.44
2022-10-19T18:14:14.293Z,100549.91
2022-10-19T18:16:47.413Z,100557.06
2022-10-19T18:19:17.529Z,100550.25
2022-10-19T18:21:47.550Z,100555.72
2022-10-19T18:24:20.034Z,100564.69
2022-10-19T18:26:50.145Z,100559.56
2022-10-19T18:29:22.405Z,100554.47
2022-10-19T18:31:53.221Z,100561.69
2022-10-19T18:34:26.692Z,100556.84
2022-10-19T18:36:55.222Z,100567.84
2022-10-19T18:39:24.638Z,100566.97
2022-10-19T18:41:55.202Z,100571.81
2022-10-19T18:44:27.255Z,100573.41
2022-10-19T18:46:59.849Z,100578.56
2022-10-19T18:49:28.084Z,100567.03
2022-10-19T18:52:00.159Z,100574.53
2022-10-19T18:54:28.645Z,100570.13
2022-10-19T18:56:58.476Z,100571.28
2022-10-19T19:01:56.189Z,100568.63
2022-10-19T19:04:23.429Z,100565.34
2022-10-19T19:06:53.407Z,100570.34
2022-10-19T19:09:21.928Z,100575.63
2022-10-19T19:11:49.400Z,100566.94
2022-10-19T19:14:21.764Z,100568.69
2022-10-19T19:16:50.933Z,100572.06
2022-10-19T19:19:20.786Z,100577.53
2022-10-19T19:21:50.576Z,100563.19
2022-10-19T19:24:20.343Z,100575.22
2022-10-19T19:26:52.202Z,100564.84
2022-10-19T19:29:21.129Z,100565.53
2022-10-19T19:31:49.861Z,100567.84
2022-10-19T19:34:24.733Z,100572.84
2022-10-19T19:36:52.235Z,100567.66
2022-10-19T19:39:22.801Z,100572.44
2022-10-19T19:41:51.321Z,100578.41
2022-10-19T19:44:19.829Z,100576.63
2022-10-19T19:46:48.363Z,100582.25
2022-10-19T19:49:21.463Z,100589.41
2022-10-19T19:51:49.992Z,100592.84
2022-10-19T19:54:17.835Z,100589.25
2022-10-19T19:56:45.947Z,100589.41
2022-10-19T19:59:14.454Z,100591.09
2022-10-19T20:01:44.199Z,100591.94
2022-10-19T20:04:12.060Z,100598.22
2022-10-19T20:06:41.754Z,100601.91
2022-10-19T20:09:13.646Z,100603.44
2022-10-19T20:11:54.202Z,100606.88
2022-10-19T20:14:24.820Z,100600.56
2022-10-19T20:16:52.356Z,100608.44
2022-10-19T20:19:22.805Z,100609.97
2022-10-19T20:21:51.584Z,100606.13
2022-10-19T20:24:20.052Z,100614.06
2022-10-19T20:26:52.602Z,100620.09
2022-10-19T20:29:22.309Z,100629.06
2022-10-19T20:31:53.746Z,100631.06
2022-10-19T20:34:23.155Z,100631.34
2022-10-19T20:36:58.454Z,100621.09
2022-10-19T20:39:30.007Z,100631.91
2022-10-19T20:41:57.154Z,100626.66
2022-10-19T20:44:24.539Z,100629.25
2022-10-19T20:46:59.433Z,100629.34
2022-10-19T20:49:28.492Z,100627.69
2022-10-19T20:51:56.015Z,100629.56
2022-10-19T20:54:23.243Z,100632.25
2022-10-19T20:56:50.185Z,100625.94
2022-10-19T20:59:19.342Z,100631.22
2022-10-19T21:01:52.692Z,100633.28
2022-10-19T21:04:26.438Z,100631.56
2022-10-19T21:07:00.355Z,100629.69
2022-10-19T21:09:27.423Z,100631.78
2022-10-19T21:11:54.453Z,100625.75
2022-10-19T21:14:28.334Z,100634.56
2022-10-19T21:16:58.597Z,100632.59
2022-10-19T21:19:31.347Z,100632.00
2022-10-19T21:22:04.427Z,100633.03
2022-10-19T21:24:35.606Z,100637.75
2022-10-19T21:27:06.828Z,100632.78
2022-10-19T21:29:37.414Z,100640.75
2022-10-19T21:32:12.262Z,100631.41
2022-10-19T21:34:39.286Z,100633.31
2022-10-19T21:37:07.326Z,100637.75
2022-10-19T21:39:34.474Z,100642.25
2022-10-19T21:42:02.867Z,100637.16
2022-10-19T21:44:30.809Z,100637.03
2022-10-19T21:46:59.854Z,100634.56
2022-10-19T21:49:34.869Z,100643.31
2022-10-19T21:52:01.943Z,100648.50
2022-10-19T21:54:29.926Z,100641.59
2022-10-19T21:57:08.789Z,100641.69
2022-10-19T21:59:35.855Z,100647.94
2022-10-19T22:02:04.881Z,100649.00
2022-10-19T22:04:32.823Z,100645.06
2022-10-19T22:07:01.617Z,100649.88
2022-10-19T22:09:31.667Z,100653.50
2022-10-19T22:11:58.699Z,100646.34
2022-10-19T22:14:25.727Z,100653.13
2022-10-19T22:16:53.783Z,100657.44
2022-10-19T22:19:23.946Z,100653.88
2022-10-19T22:22:02.089Z,100660.91
2022-10-19T22:24:29.080Z,100664.66
2022-10-19T22:27:01.883Z,100659.84
2022-10-19T22:29:28.905Z,100655.72
2022-10-19T22:31:57.923Z,100663.50
2022-10-19T22:34:29.096Z,100657.22
2022-10-19T22:37:01.316Z,100663.25
2022-10-19T22:39:30.279Z,100671.19
2022-10-19T22:42:25.367Z,100669.59
2022-10-19T22:44:52.386Z,100667.78
2022-10-19T22:47:19.474Z,100674.09
2022-10-19T22:49:54.582Z,100670.78
2022-10-19T22:52:22.624Z,100672.63
2022-10-19T22:54:51.433Z,100664.63
2022-10-19T22:57:18.489Z,100669.72
2022-10-19T22:59:51.347Z,100676.66
2022-10-19T23:02:19.319Z,100676.72
2022-10-19T23:04:46.427Z,100677.63
2022-10-19T23:07:14.471Z,100673.34
2022-10-19T23:09:45.473Z,100675.06
2022-10-19T23:12:12.539Z,100668.13
2022-10-19T23:14:40.519Z,100665.53
2022-10-19T23:17:07.599Z,100666.38
2022-10-19T23:19:36.696Z,100675.97
2022-10-19T23:22:12.817Z,100669.84
2022-10-19T23:24:45.012Z,100668.94
2022-10-19T23:27:19.110Z,100669.81
2022-10-19T23:29:47.238Z,100670.63
2022-10-19T23:32:16.413Z,100676.75
2022-10-19T23:34:47.484Z,100680.25
2022-10-19T23:37:17.766Z,100676.84
2022-10-19T23:39:44.800Z,100680.34
2022-10-19T23:42:11.799Z,100681.25
2022-10-19T23:44:39.792Z,100683.13
2022-10-19T23:47:07.777Z,100677.75
2022-10-19T23:49:34.806Z,100682.13
2022-10-19T23:52:05.983Z,100682.94
2022-10-19T23:54:39.149Z,100677.66
2022-10-19T23:57:12.984Z,100675.00
2022-10-19T23:59:41.064Z,100667.16
